Time;durP1;ratioP1;P1;durP2;ratioP2;P2;SDS_P1;SDS_P2;PMS_P1;PMS_P2;Temp;Humidity;BMP_temperature;BMP_pressure;BME280_temperature;BME280_humidity;BME280_pressure;Samples;Min_cycle;Max_cycle;Signal;HPM_P1;HPM_P2
2021/05/23 00:01:11;;;;;;;4.67;3.45;;;;;;;16.63;53.64;99380.38;1614367;88;21593;-71
2021/05/23 00:03:39;;;;;;;4.83;3.98;;;;;;;16.65;53.65;99379.51;1580812;90;21051;-70
2021/05/23 00:06:06;;;;;;;6.37;5.05;;;;;;;16.66;53.61;99372.98;1631926;87;21133;-70
2021/05/23 00:08:32;;;;;;;6.90;5.17;;;;;;;16.68;53.65;99374.86;1630652;87;21004;-72
2021/05/23 00:11:07;;;;;;;10.43;6.62;;;;;;;16.70;53.58;99377.25;1610875;87;20984;-74
2021/05/23 00:13:42;;;;;;;6.92;5.95;;;;;;;16.72;53.59;99384.02;1613759;87;21119;-70
2021/05/23 00:16:13;;;;;;;7.75;6.28;;;;;;;16.74;53.64;99387.80;1613462;87;21632;-70
2021/05/23 00:18:44;;;;;;;9.60;5.62;;;;;;;16.76;53.64;99388.30;1591877;90;21042;-70
2021/05/23 00:21:12;;;;;;;8.60;5.85;;;;;;;16.77;53.80;99379.86;1638415;87;20988;-71
2021/05/23 00:23:38;;;;;;;7.65;5.95;;;;;;;16.78;53.85;99382.84;1610071;88;21108;-70
2021/05/23 00:26:05;;;;;;;5.60;4.92;;;;;;;16.79;53.85;99389.05;1609421;87;21071;-71
2021/05/23 00:28:32;;;;;;;6.75;3.92;;;;;;;16.80;53.81;99387.95;1646925;87;21607;-71
2021/05/23 00:30:59;;;;;;;5.00;4.35;;;;;;;16.80;53.85;99396.91;1631936;87;21107;-70
2021/05/23 00:33:26;;;;;;;3.60;3.30;;;;;;;16.81;53.94;99401.79;1624494;87;21113;-71
2021/05/23 00:35:52;;;;;;;3.98;2.67;;;;;;;16.80;53.93;99409.68;1623207;87;21058;-70
2021/05/23 00:38:18;;;;;;;3.92;2.47;;;;;;;16.80;53.96;99410.48;1611288;87;22294;-70
2021/05/23 00:40:45;;;;;;;3.62;2.95;;;;;;;16.78;54.06;99396.41;1607459;87;20980;-73
2021/05/23 00:43:14;;;;;;;2.85;2.40;;;;;;;16.77;54.83;99406.21;1608033;87;21068;-70
2021/05/23 00:45:40;;;;;;;5.67;2.40;;;;;;;16.73;55.84;99406.55;1610481;87;21159;-69
2021/05/23 00:48:09;;;;;;;2.52;2.10;;;;;;;16.68;56.56;99414.78;1605622;88;21077;-70
2021/05/23 00:50:35;;;;;;;3.60;2.87;;;;;;;16.60;57.42;99417.61;1622625;87;21553;-70
2021/05/23 00:53:02;;;;;;;3.20;2.92;;;;;;;16.50;58.08;99407.68;1607187;87;21035;-69
2021/05/23 00:55:28;;;;;;;2.80;2.15;;;;;;;16.43;58.81;99409.17;1609095;87;21668;-72
2021/05/23 00:57:55;;;;;;;5.00;2.58;;;;;;;16.33;59.63;99416.91;1631816;85;21166;-69
2021/05/23 01:00:44;;;;;;;3.65;2.40;;;;;;;16.24;60.49;99407.83;1634765;86;21076;-69
2021/05/23 01:03:34;;;;;;;4.70;3.00;;;;;;;16.15;61.47;99413.66;1643828;86;21054;-71
2021/05/23 01:06:08;;;;;;;2.40;2.17;;;;;;;16.04;62.77;99418.41;1656512;86;21126;-70
2021/05/23 01:08:36;;;;;;;2.90;2.17;;;;;;;15.93;63.59;99418.82;1648032;86;21061;-70
2021/05/23 01:11:17;;;;;;;3.20;2.90;;;;;;;15.84;64.72;99416.50;1647288;86;21609;-70
2021/05/23 01:14:01;;;;;;;4.58;2.55;;;;;;;15.69;65.46;99418.31;1619813;88;21561;-70
2021/05/23 01:16:43;;;;;;;3.50;2.70;;;;;;;15.58;66.69;99414.13;1604893;88;20994;-69
2021/05/23 01:19:32;;;;;;;5.35;2.30;;;;;;;15.43;68.29;99418.33;1591285;88;21089;-69
2021/05/23 01:22:13;;;;;;;2.62;2.42;;;;;;;15.25;70.25;99409.02;1589860;88;21030;-71
2021/05/23 01:24:47;;;;;;;2.30;2.10;;;;;;;15.07;72.43;99417.07;1605002;89;21621;-70
2021/05/23 01:27:19;;;;;;;2.80;2.60;;;;;;;14.86;74.85;99415.12;1626597;86;21723;-70
2021/05/23 01:29:47;;;;;;;2.72;2.20;;;;;;;14.71;75.67;99410.64;1636723;86;20979;-69
2021/05/23 01:32:13;;;;;;;4.25;2.37;;;;;;;14.65;76.90;99414.47;1634993;86;21090;-69
2021/05/23 01:34:40;;;;;;;3.37;2.58;;;;;;;14.61;77.79;99416.67;1651500;86;21047;-70
2021/05/23 01:37:06;;;;;;;5.12;2.70;;;;;;;14.57;78.65;99417.80;1614204;86;21621;-71
2021/05/23 01:39:33;;;;;;;4.20;2.25;;;;;;;14.55;79.16;99416.44;1645300;86;21029;-69
2021/05/23 01:41:59;;;;;;;2.33;2.10;;;;;;;14.53;79.75;99418.07;1608702;86;21650;-71
2021/05/23 01:44:27;;;;;;;2.47;2.27;;;;;;;14.50;80.16;99425.41;1615603;86;21073;-71
2021/05/23 01:46:53;;;;;;;2.52;2.33;;;;;;;14.48;80.65;99427.61;1639604;86;21109;-71
2021/05/23 01:49:20;;;;;;;3.37;2.45;;;;;;;14.52;81.16;99435.97;1646376;86;20995;-69
2021/05/23 01:51:46;;;;;;;3.87;3.12;;;;;;;14.54;81.48;99440.53;1632063;86;20991;-70
2021/05/23 01:54:12;;;;;;;5.03;2.75;;;;;;;14.57;81.85;99448.11;1637379;86;21269;-70
2021/05/23 01:56:39;;;;;;;4.78;2.70;;;;;;;14.63;82.00;99446.95;1615951;86;20959;-69
2021/05/23 01:59:06;;;;;;;4.45;2.42;;;;;;;14.68;82.11;99441.51;1640757;86;21057;-70
2021/05/23 02:01:33;;;;;;;3.20;2.85;;;;;;;14.71;82.31;99441.77;1611599;86;21608;-70
2021/05/23 02:04:01;;;;;;;8.08;2.40;;;;;;;14.67;82.64;99438.56;1651709;86;21066;-70
2021/05/23 02:06:28;;;;;;;3.65;2.98;;;;;;;14.66;82.81;99441.00;1624421;86;21475;-70
2021/05/23 02:08:55;;;;;;;5.25;4.22;;;;;;;14.65;82.99;99445.60;1631788;86;21283;-69
2021/05/23 02:11:21;;;;;;;3.85;3.50;;;;;;;14.67;83.06;99448.04;1644467;86;21145;-68
2021/05/23 02:13:51;;;;;;;5.67;2.95;;;;;;;14.71;83.14;99442.31;1630028;86;21641;-69
2021/05/23 02:16:18;;;;;;;3.35;2.70;;;;;;;14.77;82.99;99440.62;1627842;86;21046;-70
2021/05/23 02:18:45;;;;;;;3.60;2.55;;;;;;;14.83;82.87;99448.97;1646399;86;21046;-70
2021/05/23 02:21:14;;;;;;;4.05;2.80;;;;;;;14.80;83.38;99454.97;1627181;86;21583;-71
2021/05/23 02:23:53;;;;;;;2.77;2.42;;;;;;;14.74;83.82;99454.73;1627143;86;21789;-70
2021/05/23 02:26:20;;;;;;;3.87;2.70;;;;;;;14.67;84.26;99456.16;1649416;86;21030;-71
2021/05/23 02:28:47;;;;;;;3.37;2.22;;;;;;;14.70;84.05;99459.10;1652563;86;21623;-68
2021/05/23 02:31:13;;;;;;;3.52;2.87;;;;;;;14.74;83.85;99469.63;1652363;86;21102;-69
2021/05/23 02:33:41;;;;;;;2.72;2.52;;;;;;;14.77;83.93;99464.20;1652239;86;21599;-70
2021/05/23 02:36:08;;;;;;;2.98;2.67;;;;;;;14.80;83.90;99471.20;1652377;86;21163;-69
2021/05/23 02:38:34;;;;;;;4.03;2.75;;;;;;;14.84;83.62;99464.13;1630979;86;21002;-72
2021/05/23 02:41:01;;;;;;;2.95;2.58;;;;;;;14.82;83.94;99468.20;1645911;86;21607;-70
2021/05/23 02:43:29;;;;;;;3.30;2.70;;;;;;;14.77;84.60;99472.33;1652465;86;21659;-70
2021/05/23 02:45:56;;;;;;;4.78;2.27;;;;;;;14.69;84.85;99483.19;1629804;86;21596;-70
2021/05/23 02:48:22;;;;;;;5.60;2.77;;;;;;;14.68;85.48;99483.47;1652070;86;21082;-69
2021/05/23 02:50:52;;;;;;;7.37;3.40;;;;;;;14.67;85.73;99488.64;1652406;86;21099;-69
2021/05/23 02:53:20;;;;;;;7.10;3.05;;;;;;;14.66;85.81;99488.37;1633674;86;21035;-69
2021/05/23 02:55:48;;;;;;;7.08;3.05;;;;;;;14.66;85.96;99486.47;1637377;86;21080;-71
2021/05/23 02:58:15;;;;;;;5.72;2.35;;;;;;;14.67;85.83;99489.45;1651682;86;20991;-70
2021/05/23 03:00:42;;;;;;;7.08;3.50;;;;;;;14.69;85.81;99484.55;1650379;86;21583;-71
2021/05/23 03:03:10;;;;;;;9.30;3.95;;;;;;;14.66;86.17;99480.25;1629595;86;21058;-70
2021/05/23 03:05:36;;;;;;;4.62;3.30;;;;;;;14.67;86.26;99492.70;1652274;86;21047;-70
2021/05/23 03:08:04;;;;;;;3.58;3.27;;;;;;;14.72;86.36;99502.14;1652288;86;20975;-70
2021/05/23 03:10:42;;;;;;;3.95;3.40;;;;;;;14.72;86.34;99488.61;1629690;86;21658;-72
2021/05/23 03:13:09;;;;;;;3.83;3.15;;;;;;;14.67;86.47;99481.88;1652326;86;21159;-72
2021/05/23 03:15:38;;;;;;;4.05;3.27;;;;;;;14.67;86.65;99484.04;1640302;86;21063;-70
2021/05/23 03:18:05;;;;;;;5.30;3.75;;;;;;;14.66;86.68;99481.61;1632987;86;21603;-70
2021/05/23 03:20:33;;;;;;;3.65;3.35;;;;;;;14.65;86.85;99496.22;1630160;86;21018;-72
2021/05/23 03:22:59;;;;;;;17.35;10.85;;;;;;;14.60;87.02;99493.00;1647939;86;21058;-70
2021/05/23 03:25:27;;;;;;;5.22;4.70;;;;;;;14.60;87.02;99498.96;1652010;86;21040;-70
2021/05/23 03:27:54;;;;;;;5.30;3.65;;;;;;;14.64;86.95;99498.12;1631914;86;22345;-70
2021/05/23 03:30:30;;;;;;;5.33;3.80;;;;;;;14.61;86.76;99494.62;1652431;86;21054;-69
2021/05/23 03:32:57;;;;;;;4.25;3.90;;;;;;;14.51;87.41;99489.82;1654158;86;21627;-70
2021/05/23 03:35:23;;;;;;;3.40;3.10;;;;;;;14.44;87.90;99497.42;1655191;86;20998;-71
2021/05/23 03:37:50;;;;;;;3.62;3.33;;;;;;;14.43;88.26;99503.41;1638542;86;21088;-70
2021/05/23 03:40:17;;;;;;;5.22;4.45;;;;;;;14.47;88.28;99499.05;1626276;88;21654;-68
2021/05/23 03:42:45;;;;;;;6.85;4.87;;;;;;;14.49;88.36;99502.27;1626466;88;21603;-70
2021/05/23 03:45:15;;;;;;;4.83;4.22;;;;;;;14.52;88.06;99506.33;1626405;88;21043;-69
2021/05/23 03:47:43;;;;;;;9.28;4.65;;;;;;;14.58;87.96;99510.05;1626388;88;21018;-70
2021/05/23 03:50:10;;;;;;;4.12;3.75;;;;;;;14.69;87.56;99511.62;1606098;88;21054;-70
2021/05/23 03:52:37;;;;;;;5.53;4.08;;;;;;;14.76;87.21;99505.90;1646820;86;21054;-70
2021/05/23 03:55:07;;;;;;;5.83;3.67;;;;;;;14.81;86.60;99502.62;1652972;86;21572;-68
2021/05/23 03:57:34;;;;;;;6.10;4.62;;;;;;;14.87;86.00;99502.01;1636812;86;21002;-70
2021/05/23 04:00:00;;;;;;;5.42;3.75;;;;;;;14.92;85.23;99506.03;1636425;86;21051;-70
2021/05/23 04:02:27;;;;;;;4.12;3.42;;;;;;;14.99;84.65;99512.48;1650469;86;21621;-70
2021/05/23 04:04:56;;;;;;;3.85;3.52;;;;;;;15.06;83.95;99515.13;1633270;87;20986;-70
2021/05/23 04:07:21;;;;;;;7.30;3.95;;;;;;;15.14;83.18;99522.66;1633314;87;21086;-69
2021/05/23 04:09:49;;;;;;;4.55;3.65;;;;;;;15.17;82.23;99516.66;1632011;87;21082;-69
2021/05/23 04:12:51;;;;;;;5.45;3.80;;;;;;;15.18;81.85;99517.48;1590495;88;21052;-68
2021/05/23 04:14:50;;;;;;;4.72;3.25;;;;;;;15.18;81.56;99511.52;1610297;87;21125;-69
2021/05/23 04:17:17;;;;;;;4.40;3.80;;;;;;;15.18;81.02;99521.00;1656612;86;21057;-71
2021/05/23 04:19:44;;;;;;;5.33;3.30;;;;;;;15.18;81.01;99529.13;1638849;86;21093;-72
2021/05/23 04:22:11;;;;;;;4.75;3.37;;;;;;;15.19;81.02;99540.23;1647517;86;21102;-72
2021/05/23 04:24:39;;;;;;;6.30;3.75;;;;;;;15.23;81.17;99540.47;1662259;86;21009;-70
2021/05/23 04:27:07;;;;;;;4.17;3.52;;;;;;;15.27;81.01;99537.45;1662077;86;21112;-77
2021/05/23 04:29:34;;;;;;;3.47;3.17;;;;;;;15.27;81.02;99546.39;1640853;86;21534;-70
2021/05/23 04:32:01;;;;;;;3.70;3.35;;;;;;;15.31;80.92;99548.52;1660272;86;21066;-70
2021/05/23 04:34:29;;;;;;;3.40;3.10;;;;;;;15.32;80.80;99556.38;1662403;86;21085;-67
2021/05/23 04:36:55;;;;;;;3.75;3.42;;;;;;;15.32;80.79;99555.56;1661799;86;21609;-69
2021/05/23 04:39:22;;;;;;;5.10;3.40;;;;;;;15.27;80.88;99566.70;1662317;86;21126;-69
2021/05/23 04:41:48;;;;;;;3.98;2.80;;;;;;;15.27;80.83;99573.48;1640918;86;21010;-69
2021/05/23 04:44:15;;;;;;;5.33;2.90;;;;;;;15.30;80.45;99563.96;1641077;86;20951;-69
2021/05/23 04:46:43;;;;;;;2.87;2.67;;;;;;;15.36;79.99;99576.39;1640974;86;21081;-69
2021/05/23 04:49:09;;;;;;;2.25;1.80;;;;;;;15.44;79.50;99589.34;1661977;86;21030;-69
2021/05/23 04:51:36;;;;;;;1.82;1.70;;;;;;;15.48;78.91;99580.91;1649232;86;22472;-70
2021/05/23 04:54:03;;;;;;;2.98;2.52;;;;;;;15.52;77.92;99577.11;1634995;87;21123;-70
2021/05/23 04:56:30;;;;;;;2.85;2.15;;;;;;;15.53;77.21;99578.19;1635324;87;20986;-69
2021/05/23 04:58:56;;;;;;;1.90;1.80;;;;;;;15.56;77.01;99570.83;1629422;86;21019;-71
2021/05/23 05:01:23;;;;;;;2.70;1.92;;;;;;;15.62;76.90;99568.88;1635326;87;21082;-71
2021/05/23 05:03:49;;;;;;;1.70;1.60;;;;;;;15.67;76.59;99572.90;1635306;87;21604;-70
2021/05/23 05:06:16;;;;;;;3.65;2.35;;;;;;;15.68;75.48;99573.95;1635105;87;21126;-69
2021/05/23 05:08:43;;;;;;;2.15;1.72;;;;;;;15.68;74.93;99584.02;1635303;86;21046;-69
2021/05/23 05:11:11;;;;;;;2.30;2.10;;;;;;;15.64;74.58;99579.69;1635252;87;21632;-68
2021/05/23 05:13:41;;;;;;;2.27;2.08;;;;;;;15.60;74.67;99577.84;1635278;87;21042;-70
2021/05/23 05:16:13;;;;;;;3.52;1.55;;;;;;;15.59;74.61;99577.56;1616363;87;21744;-70
2021/05/23 05:18:36;;;;;;;4.33;1.52;;;;;;;15.59;73.91;99571.59;1634133;87;21014;-71
2021/05/23 05:21:04;;;;;;;3.37;1.52;;;;;;;15.57;72.98;99579.77;1629791;86;20947;-69
2021/05/23 05:23:31;;;;;;;7.62;2.58;;;;;;;15.57;72.52;99581.13;1652222;86;21143;-69
2021/05/23 05:26:00;;;;;;;2.08;1.90;;;;;;;15.56;72.24;99579.50;1614778;87;21095;-70
2021/05/23 05:28:27;;;;;;;1.92;1.60;;;;;;;15.54;72.19;99568.94;1614642;87;21175;-71
2021/05/23 05:30:54;;;;;;;4.87;1.55;;;;;;;15.55;71.94;99579.23;1635289;87;21077;-71
2021/05/23 05:33:21;;;;;;;4.53;1.60;;;;;;;15.53;71.71;99586.86;1635385;87;20974;-70
2021/05/23 05:35:48;;;;;;;1.57;1.47;;;;;;;15.53;70.64;99580.09;1614890;86;20966;-70
2021/05/23 05:38:15;;;;;;;2.95;1.70;;;;;;;15.53;70.15;99589.57;1635122;87;20950;-69
2021/05/23 05:40:42;;;;;;;3.98;1.35;;;;;;;15.53;69.74;99589.03;1637112;86;21106;-70
2021/05/23 05:43:08;;;;;;;1.65;1.55;;;;;;;15.55;69.41;99588.18;1647816;86;20979;-70
2021/05/23 05:45:35;;;;;;;1.40;1.30;;;;;;;15.59;69.57;99597.90;1662424;86;20954;-70
2021/05/23 05:48:03;;;;;;;1.40;1.07;;;;;;;15.64;68.73;99589.17;1662032;86;21020;-71
2021/05/23 05:50:29;;;;;;;1.47;1.37;;;;;;;15.68;68.23;99588.86;1662237;86;21035;-70
2021/05/23 05:52:56;;;;;;;1.87;1.67;;;;;;;15.73;67.48;99594.78;1662234;86;21814;-71
2021/05/23 05:55:23;;;;;;;1.55;1.45;;;;;;;15.81;67.54;99597.44;1661010;86;21003;-73
2021/05/23 05:57:50;;;;;;;2.65;1.22;;;;;;;15.86;67.12;99605.53;1661887;86;21556;-70
2021/05/23 06:00:18;;;;;;;2.27;1.20;;;;;;;15.91;66.67;99602.77;1645488;86;21094;-70
2021/05/23 06:02:46;;;;;;;2.27;1.77;;;;;;;15.98;65.89;99608.64;1640264;86;21670;-69
2021/05/23 06:05:14;;;;;;;1.90;1.77;;;;;;;16.06;65.68;99606.14;1638986;86;20978;-70
2021/05/23 06:07:40;;;;;;;2.22;1.57;;;;;;;16.14;65.82;99616.89;1632742;86;21054;-70
2021/05/23 06:10:08;;;;;;;2.45;1.80;;;;;;;16.20;66.26;99630.67;1603798;88;21603;-69
2021/05/23 06:12:34;;;;;;;1.72;1.60;;;;;;;16.26;66.29;99621.94;1625842;88;21683;-69
2021/05/23 06:15:00;;;;;;;2.35;1.65;;;;;;;16.29;66.37;99623.52;1635268;86;21047;-70
2021/05/23 06:17:27;;;;;;;1.92;1.80;;;;;;;16.31;65.83;99621.84;1652564;86;21122;-69
2021/05/23 06:19:53;;;;;;;3.72;1.72;;;;;;;16.31;65.86;99624.02;1652898;86;21544;-70
2021/05/23 06:22:20;;;;;;;3.77;2.17;;;;;;;16.32;65.64;99647.35;1631856;86;21010;-70
2021/05/23 06:24:46;;;;;;;2.47;1.92;;;;;;;16.32;65.87;99627.55;1631597;86;21718;-69
2021/05/23 06:27:13;;;;;;;1.80;1.67;;;;;;;16.31;66.39;99642.20;1652644;86;21026;-76
2021/05/23 06:29:39;;;;;;;4.28;2.05;;;;;;;16.32;66.66;99646.00;1640620;86;22258;-69
2021/05/23 06:32:06;;;;;;;1.52;1.42;;;;;;;16.34;64.71;99638.94;1621974;86;21055;-70
2021/05/23 06:34:34;;;;;;;3.35;1.37;;;;;;;16.35;64.66;99630.52;1599864;88;20978;-69
2021/05/23 06:37:00;;;;;;;1.32;1.22;;;;;;;16.40;64.75;99645.92;1637175;87;21060;-68
2021/05/23 06:39:27;;;;;;;5.12;1.25;;;;;;;16.43;63.80;99644.80;1613101;87;21080;-69
2021/05/23 06:41:53;;;;;;;3.45;1.87;;;;;;;16.43;64.06;99643.98;1631788;86;21598;-70
2021/05/23 06:44:20;;;;;;;1.57;1.47;;;;;;;16.45;64.40;99641.80;1650361;86;20931;-71
2021/05/23 06:46:46;;;;;;;1.17;1.17;;;;;;;16.46;61.37;99661.85;1631897;86;21071;-70
2021/05/23 06:49:13;;;;;;;1.55;1.42;;;;;;;16.46;61.20;99652.89;1627076;88;21074;-69
2021/05/23 06:51:41;;;;;;;3.80;1.50;;;;;;;16.44;61.16;99648.32;1626110;87;21125;-71
2021/05/23 06:54:09;;;;;;;2.05;1.60;;;;;;;16.45;61.53;99664.88;1627332;87;21026;-71
2021/05/23 06:56:39;;;;;;;1.65;1.52;;;;;;;16.46;61.56;99655.06;1605753;88;21047;-70
2021/05/23 06:59:06;;;;;;;4.40;1.30;;;;;;;16.46;62.18;99646.92;1626776;86;21583;-70
2021/05/23 07:01:32;;;;;;;2.85;1.75;;;;;;;16.45;62.24;99654.80;1638453;86;20959;-71
2021/05/23 07:04:00;;;;;;;2.75;1.57;;;;;;;16.45;62.69;99647.23;1652693;86;21031;-70
2021/05/23 07:06:27;;;;;;;2.12;1.30;;;;;;;16.46;62.55;99639.32;1631568;86;20983;-72
2021/05/23 07:08:53;;;;;;;2.98;2.27;;;;;;;16.51;62.53;99645.50;1639623;86;21070;-70
2021/05/23 07:11:20;;;;;;;1.95;1.72;;;;;;;16.59;61.98;99671.26;1638838;86;21046;-70
2021/05/23 07:13:46;;;;;;;4.22;1.57;;;;;;;16.66;61.17;99645.90;1634195;86;21159;-70
2021/05/23 07:16:14;;;;;;;3.37;1.47;;;;;;;16.74;60.46;99649.89;1640140;86;21022;-69
2021/05/23 07:18:43;;;;;;;1.50;1.40;;;;;;;16.78;59.96;99643.59;1641288;86;21106;-69
2021/05/23 07:21:12;;;;;;;1.60;1.50;;;;;;;16.87;59.64;99643.73;1638439;86;21114;-71
2021/05/23 07:23:39;;;;;;;1.50;1.40;;;;;;;16.93;59.47;99639.83;1617130;86;21023;-71
2021/05/23 07:26:05;;;;;;;2.55;1.35;;;;;;;16.99;58.92;99642.74;1637669;86;21094;-71
2021/05/23 07:28:33;;;;;;;5.00;1.98;;;;;;;17.03;59.26;99651.92;1640538;86;21039;-72
2021/05/23 07:31:01;;;;;;;1.95;1.85;;;;;;;17.02;58.94;99649.52;1641272;86;21592;-73
2021/05/23 07:33:29;;;;;;;2.27;1.50;;;;;;;17.01;57.54;99651.42;1640884;86;21030;-73
2021/05/23 07:35:55;;;;;;;3.52;2.08;;;;;;;17.00;56.52;99643.81;1618896;86;21082;-70
2021/05/23 07:38:22;;;;;;;1.77;1.40;;;;;;;17.04;56.43;99666.31;1637562;86;21284;-71
2021/05/23 07:40:50;;;;;;;2.42;1.40;;;;;;;17.06;56.85;99652.71;1639498;86;21000;-71
2021/05/23 07:43:16;;;;;;;2.50;1.52;;;;;;;17.06;56.81;99668.20;1637992;86;21711;-69
2021/05/23 07:45:43;;;;;;;5.80;1.72;;;;;;;17.08;54.07;99664.63;1640934;86;21034;-70
2021/05/23 07:48:09;;;;;;;2.60;2.25;;;;;;;17.07;53.95;99652.97;1635101;86;21094;-72
2021/05/23 07:50:36;;;;;;;1.87;1.77;;;;;;;17.11;53.44;99647.75;1615292;86;21656;-73
2021/05/23 07:53:04;;;;;;;2.17;1.62;;;;;;;17.15;52.55;99682.75;1628373;86;20959;-73
2021/05/23 07:55:30;;;;;;;3.33;1.27;;;;;;;17.20;52.58;99673.17;1635959;86;21133;-73
2021/05/23 07:57:57;;;;;;;2.27;1.45;;;;;;;17.24;52.93;99648.38;1626365;86;21107;-74
2021/05/23 08:00:24;;;;;;;1.40;1.22;;;;;;;17.29;52.42;99660.53;1640202;86;20979;-74
2021/05/23 08:02:50;;;;;;;1.85;1.75;;;;;;;17.31;52.21;99667.84;1614276;87;21070;-73
2021/05/23 08:05:17;;;;;;;2.85;1.52;;;;;;;17.33;52.59;99649.31;1643090;86;21082;-73
2021/05/23 08:07:43;;;;;;;3.00;1.52;;;;;;;17.35;52.91;99650.66;1629992;86;21175;-68
2021/05/23 08:10:12;;;;;;;1.35;1.25;;;;;;;17.39;52.00;99666.63;1641524;86;21653;-71
2021/05/23 08:12:39;;;;;;;3.65;1.75;;;;;;;17.45;50.20;99657.84;1651711;86;21086;-71
2021/05/23 08:15:07;;;;;;;8.83;1.95;;;;;;;17.48;50.38;99645.55;1644446;86;21579;-70
2021/05/23 08:17:33;;;;;;;1.85;1.75;;;;;;;17.53;50.32;99662.60;1645901;86;21551;-82
2021/05/23 08:20:00;;;;;;;3.42;1.72;;;;;;;17.59;49.92;99656.56;1647340;86;21146;-70
2021/05/23 08:22:26;;;;;;;4.62;2.10;;;;;;;17.65;49.81;99645.28;1642264;86;21003;-72
2021/05/23 08:24:53;;;;;;;9.85;2.33;;;;;;;17.73;49.94;99656.88;1642627;86;21118;-68
2021/05/23 08:27:19;;;;;;;1.70;1.60;;;;;;;17.82;50.31;99661.08;1647505;86;20999;-70
2021/05/23 08:29:46;;;;;;;2.52;1.65;;;;;;;17.91;49.62;99652.48;1651166;86;20982;-70
2021/05/23 08:32:14;;;;;;;2.33;1.37;;;;;;;18.03;49.67;99661.53;1652359;86;21563;-72
2021/05/23 08:34:42;;;;;;;2.83;1.12;;;;;;;18.11;49.38;99664.37;1652519;86;21004;-68
2021/05/23 08:37:08;;;;;;;2.12;1.77;;;;;;;18.17;47.73;99672.70;1653470;86;21047;-70
2021/05/23 08:39:35;;;;;;;1.85;1.27;;;;;;;18.19;47.92;99669.11;1654636;86;20999;-69
2021/05/23 08:42:05;;;;;;;7.20;1.62;;;;;;;18.22;48.39;99671.22;1655324;86;21451;-72
2021/05/23 08:44:32;;;;;;;1.27;1.07;;;;;;;18.28;48.35;99663.22;1650993;86;21539;-71
2021/05/23 08:47:00;;;;;;;3.17;1.50;;;;;;;18.38;47.15;99681.83;1629455;86;21013;-69
2021/05/23 08:49:28;;;;;;;3.98;1.47;;;;;;;18.38;46.93;99675.02;1629669;86;21055;-69
2021/05/23 08:51:55;;;;;;;1.82;1.30;;;;;;;18.38;47.45;99692.72;1651048;86;21137;-69
2021/05/23 08:54:23;;;;;;;4.17;1.95;;;;;;;18.35;47.26;99702.32;1650563;86;20962;-69
2021/05/23 08:56:51;;;;;;;1.57;1.42;;;;;;;18.33;48.10;99685.45;1650499;86;21037;-69
2021/05/23 08:59:18;;;;;;;1.72;1.57;;;;;;;18.29;48.06;99689.34;1650151;86;21002;-70
2021/05/23 09:01:45;;;;;;;2.02;1.50;;;;;;;18.32;48.38;99677.03;1650416;86;21638;-70
2021/05/23 09:04:19;;;;;;;1.57;1.20;;;;;;;18.38;48.40;99677.75;1650383;87;21115;-71
2021/05/23 09:06:45;;;;;;;2.22;1.30;;;;;;;18.45;48.41;99680.89;1650341;86;21013;-70
2021/05/23 09:09:15;;;;;;;6.25;1.20;;;;;;;18.47;47.90;99667.77;1650513;87;22862;-69
2021/05/23 09:11:52;;;;;;;1.90;1.15;;;;;;;18.51;47.83;99668.22;1651602;86;20959;-69
2021/05/23 09:14:34;;;;;;;5.25;1.67;;;;;;;18.56;47.35;99677.69;1651205;86;21010;-68
2021/05/23 09:17:04;;;;;;;5.12;2.12;;;;;;;18.62;46.89;99671.58;1650561;86;21586;-68
2021/05/23 09:19:43;;;;;;;5.00;1.65;;;;;;;18.68;46.62;99670.38;1629505;87;21082;-70
2021/05/23 09:22:15;;;;;;;5.12;1.30;;;;;;;18.73;46.57;99658.83;1633618;86;22022;-70
2021/05/23 09:24:53;;;;;;;4.25;1.70;;;;;;;18.85;46.29;99664.32;1631681;87;21015;-70
2021/05/23 09:27:23;;;;;;;2.52;1.32;;;;;;;18.95;45.49;99653.98;1631986;87;21010;-70
2021/05/23 09:30:16;;;;;;;1.52;1.27;;;;;;;19.10;44.63;99671.93;1631861;87;21090;-70
2021/05/23 09:32:44;;;;;;;2.15;1.22;;;;;;;19.20;43.22;99664.89;1613382;87;21087;-70
2021/05/23 09:35:10;;;;;;;1.37;1.12;;;;;;;19.25;43.19;99650.33;1631701;87;22553;-70
2021/05/23 09:37:37;;;;;;;3.10;1.37;;;;;;;19.30;43.94;99652.39;1614325;87;21101;-68
2021/05/23 09:40:21;;;;;;;3.83;1.17;;;;;;;19.45;43.82;99654.80;1632004;88;21123;-69
2021/05/23 09:42:50;;;;;;;1.70;1.35;;;;;;;19.57;41.79;99674.13;1631495;87;21106;-70
2021/05/23 09:45:17;;;;;;;1.37;0.82;;;;;;;19.72;40.11;99663.41;1633414;87;21049;-70
2021/05/23 09:47:55;;;;;;;2.12;1.32;;;;;;;19.76;39.07;99655.42;1631977;87;22614;-71
2021/05/23 09:50:37;;;;;;;8.95;2.60;;;;;;;19.80;39.49;99646.86;1631774;87;20980;-70
2021/05/23 09:53:21;;;;;;;1.90;1.32;;;;;;;19.89;40.87;99666.27;1633065;87;21160;-69
2021/05/23 09:56:02;;;;;;;3.45;1.35;;;;;;;19.92;40.31;99653.34;1635176;86;21019;-71
2021/05/23 09:58:36;;;;;;;1.32;1.20;;;;;;;19.96;40.19;99659.79;1651870;86;21654;-70
2021/05/23 10:01:04;;;;;;;3.50;1.22;;;;;;;20.05;39.62;99646.77;1652843;86;21096;-70
2021/05/23 10:03:32;;;;;;;3.00;2.10;;;;;;;20.18;39.58;99658.15;1635788;87;21060;-70
2021/05/23 10:05:59;;;;;;;2.27;1.67;;;;;;;20.29;39.19;99650.72;1652927;86;20967;-69
2021/05/23 10:08:28;;;;;;;1.22;1.05;;;;;;;20.37;38.82;99643.73;1635833;87;21119;-69
2021/05/23 10:10:55;;;;;;;2.35;1.52;;;;;;;20.36;38.13;99652.48;1652767;86;21634;-69
2021/05/23 10:13:24;;;;;;;3.72;1.27;;;;;;;20.35;38.42;99659.06;1614025;87;21138;-70
2021/05/23 10:15:51;;;;;;;0.93;0.90;;;;;;;20.32;38.64;99645.23;1613210;87;21047;-70
2021/05/23 10:18:20;;;;;;;2.45;1.35;;;;;;;20.32;38.57;99646.59;1633733;87;20994;-71
2021/05/23 10:20:47;;;;;;;2.17;0.93;;;;;;;20.36;38.75;99647.02;1614522;87;21073;-69
2021/05/23 10:23:18;;;;;;;1.95;1.40;;;;;;;20.45;38.38;99659.34;1631950;88;21101;-70
2021/05/23 10:25:51;;;;;;;1.77;1.67;;;;;;;20.53;37.84;99658.55;1631757;88;21139;-71
2021/05/23 10:28:19;;;;;;;2.27;1.15;;;;;;;20.57;37.67;99673.22;1631659;87;21528;-69
2021/05/23 10:30:50;;;;;;;0.98;0.98;;;;;;;20.62;36.39;99665.44;1631603;88;22256;-69
2021/05/23 10:33:17;;;;;;;4.00;1.60;;;;;;;20.66;36.51;99685.55;1630930;88;21069;-70
2021/05/23 10:35:47;;;;;;;1.92;0.88;;;;;;;20.66;36.36;99674.05;1631214;88;21000;-69
2021/05/23 10:38:20;;;;;;;2.12;1.02;;;;;;;20.71;35.21;99660.24;1631287;88;21711;-70
2021/05/23 10:40:54;;;;;;;3.47;1.07;;;;;;;20.80;35.94;99662.99;1652398;86;21034;-69
2021/05/23 10:43:27;;;;;;;0.98;0.95;;;;;;;20.80;35.94;99662.99;1652160;86;21035;-71
2021/05/23 10:46:06;;;;;;;2.37;1.40;;;;;;;20.88;35.16;99661.64;1652275;86;21037;-68
2021/05/23 10:48:32;;;;;;;1.57;1.10;;;;;;;21.07;35.81;99647.67;1623798;87;21054;-71
2021/05/23 10:51:14;;;;;;;2.02;1.47;;;;;;;21.07;35.81;99647.67;1625844;88;21182;-68
2021/05/23 10:53:42;;;;;;;3.85;2.22;;;;;;;21.20;35.25;99678.20;1603630;88;21078;-71
2021/05/23 10:56:30;;;;;;;5.85;1.77;;;;;;;21.30;35.11;99662.03;1603896;88;21090;-69
2021/05/23 10:59:00;;;;;;;1.92;1.32;;;;;;;21.33;35.40;99656.50;1603988;88;21090;-69
2021/05/23 11:01:47;;;;;;;4.17;1.60;;;;;;;21.33;35.40;99656.50;1625514;88;21047;-70
2021/05/23 11:04:18;;;;;;;2.70;1.75;;;;;;;21.39;35.25;99662.84;1604193;88;21020;-71
2021/05/23 11:06:46;;;;;;;1.22;1.10;;;;;;;21.41;35.35;99657.05;1635321;86;20967;-71
2021/05/23 11:09:17;;;;;;;2.52;1.05;;;;;;;21.48;35.13;99646.44;1651144;86;21214;-69
2021/05/23 11:11:44;;;;;;;2.87;1.50;;;;;;;21.56;35.36;99660.11;1614852;87;21578;-69
2021/05/23 11:14:19;;;;;;;2.40;1.27;;;;;;;21.67;35.06;99644.98;1631866;88;21120;-69
2021/05/23 11:16:53;;;;;;;1.67;1.40;;;;;;;21.80;34.94;99654.12;1631632;87;21170;-69
2021/05/23 11:19:23;;;;;;;2.20;1.47;;;;;;;21.86;34.97;99647.92;1631582;87;21075;-70
2021/05/23 11:21:54;;;;;;;1.62;1.50;;;;;;;21.91;34.88;99649.92;1631579;88;21093;-70
2021/05/23 11:24:30;;;;;;;1.40;1.12;;;;;;;21.89;34.70;99626.72;1631941;88;21103;-70
2021/05/23 11:26:57;;;;;;;2.65;1.35;;;;;;;21.95;34.73;99641.32;1631824;87;21020;-71
2021/05/23 11:29:27;;;;;;;1.90;1.00;;;;;;;22.07;33.86;99640.63;1631600;87;21775;-70
2021/05/23 11:31:53;;;;;;;2.72;1.45;;;;;;;22.12;33.76;99656.33;1636800;87;21049;-69
2021/05/23 11:34:21;;;;;;;4.53;1.10;;;;;;;22.08;33.75;99660.85;1633734;87;21611;-69
2021/05/23 11:36:49;;;;;;;1.00;0.90;;;;;;;22.10;33.82;99652.31;1633730;87;21022;-68
2021/05/23 11:39:19;;;;;;;12.25;1.87;;;;;;;22.11;33.82;99651.16;1602337;87;21049;-70
2021/05/23 11:41:48;;;;;;;5.92;1.37;;;;;;;22.22;33.39;99658.47;1633619;87;21655;-68